sensor_id;sensor_type;location;lat;lon;timestamp;P1;durP1;ratioP1;P2;durP2;ratioP2
21206;SDS011;10761;48.532;8.026;2023-11-19T00:02:18;0.40;;;0.40;;
21206;SDS011;10761;48.532;8.026;2023-11-19T00:04:44;0.80;;;0.40;;
21206;SDS011;10761;48.532;8.026;2023-11-19T00:07:10;1.35;;;0.30;;
21206;SDS011;10761;48.532;8.026;2023-11-19T00:09:38;1.15;;;0.40;;
21206;SDS011;10761;48.532;8.026;2023-11-19T00:12:04;0.52;;;0.50;;
21206;SDS011;10761;48.532;8.026;2023-11-19T00:14:30;1.17;;;0.50;;
21206;SDS011;10761;48.532;8.026;2023-11-19T00:16:56;0.43;;;0.40;;
21206;SDS011;10761;48.532;8.026;2023-11-19T00:19:22;2.28;;;0.30;;
21206;SDS011;10761;48.532;8.026;2023-11-19T00:21:47;0.30;;;0.30;;
21206;SDS011;10761;48.532;8.026;2023-11-19T00:24:13;2.17;;;0.40;;
21206;SDS011;10761;48.532;8.026;2023-11-19T00:26:41;0.40;;;0.30;;
21206;SDS011;10761;48.532;8.026;2023-11-19T00:29:07;0.40;;;0.40;;
21206;SDS011;10761;48.532;8.026;2023-11-19T00:31:33;0.88;;;0.35;;
21206;SDS011;10761;48.532;8.026;2023-11-19T00:33:58;0.13;;;0.13;;
21206;SDS011;10761;48.532;8.026;2023-11-19T00:36:24;0.65;;;0.30;;
21206;SDS011;10761;48.532;8.026;2023-11-19T00:38:50;0.90;;;0.30;;
21206;SDS011;10761;48.532;8.026;2023-11-19T00:41:17;0.32;;;0.25;;
21206;SDS011;10761;48.532;8.026;2023-11-19T00:43:43;0.65;;;0.45;;
21206;SDS011;10761;48.532;8.026;2023-11-19T00:46:09;1.08;;;0.30;;
21206;SDS011;10761;48.532;8.026;2023-11-19T00:48:36;1.00;;;0.30;;
21206;SDS011;10761;48.532;8.026;2023-11-19T00:51:02;1.02;;;0.50;;
21206;SDS011;10761;48.532;8.026;2023-11-19T00:53:29;0.77;;;0.50;;
21206;SDS011;10761;48.532;8.026;2023-11-19T00:55:54;2.63;;;0.60;;
21206;SDS011;10761;48.532;8.026;2023-11-19T00:58:20;0.30;;;0.30;;
21206;SDS011;10761;48.532;8.026;2023-11-19T01:00:46;1.80;;;0.60;;
21206;SDS011;10761;48.532;8.026;2023-11-19T01:03:12;2.58;;;0.57;;
21206;SDS011;10761;48.532;8.026;2023-11-19T01:05:37;1.23;;;0.60;;
21206;SDS011;10761;48.532;8.026;2023-11-19T01:08:03;0.32;;;0.30;;
21206;SDS011;10761;48.532;8.026;2023-11-19T01:10:30;1.60;;;0.65;;
21206;SDS011;10761;48.532;8.026;2023-11-19T01:12:56;0.93;;;0.50;;
21206;SDS011;10761;48.532;8.026;2023-11-19T01:15:22;1.08;;;0.50;;
21206;SDS011;10761;48.532;8.026;2023-11-19T01:17:48;1.25;;;0.60;;
21206;SDS011;10761;48.532;8.026;2023-11-19T01:20:13;0.75;;;0.40;;
21206;SDS011;10761;48.532;8.026;2023-11-19T01:22:39;1.67;;;0.57;;
21206;SDS011;10761;48.532;8.026;2023-11-19T01:25:06;1.02;;;0.50;;
21206;SDS011;10761;48.532;8.026;2023-11-19T01:27:32;0.90;;;0.40;;
21206;SDS011;10761;48.532;8.026;2023-11-19T01:30:01;1.27;;;0.80;;
21206;SDS011;10761;48.532;8.026;2023-11-19T01:32:31;1.45;;;0.70;;
21206;SDS011;10761;48.532;8.026;2023-11-19T01:34:57;0.95;;;0.70;;
21206;SDS011;10761;48.532;8.026;2023-11-19T01:37:23;1.77;;;0.60;;
21206;SDS011;10761;48.532;8.026;2023-11-19T01:39:48;1.17;;;0.70;;
21206;SDS011;10761;48.532;8.026;2023-11-19T01:42:14;3.03;;;1.02;;
21206;SDS011;10761;48.532;8.026;2023-11-19T01:44:40;1.10;;;0.75;;
21206;SDS011;10761;48.532;8.026;2023-11-19T01:47:06;1.30;;;0.65;;
21206;SDS011;10761;48.532;8.026;2023-11-19T01:49:33;0.98;;;0.80;;
21206;SDS011;10761;48.532;8.026;2023-11-19T01:51:59;1.15;;;0.60;;
21206;SDS011;10761;48.532;8.026;2023-11-19T01:54:25;0.80;;;0.65;;
21206;SDS011;10761;48.532;8.026;2023-11-19T01:56:53;1.85;;;0.65;;
21206;SDS011;10761;48.532;8.026;2023-11-19T01:59:21;0.52;;;0.52;;
21206;SDS011;10761;48.532;8.026;2023-11-19T02:01:51;3.70;;;0.70;;
21206;SDS011;10761;48.532;8.026;2023-11-19T02:04:18;0.60;;;0.60;;
21206;SDS011;10761;48.532;8.026;2023-11-19T02:06:45;2.30;;;0.68;;
21206;SDS011;10761;48.532;8.026;2023-11-19T02:09:13;0.65;;;0.65;;
21206;SDS011;10761;48.532;8.026;2023-11-19T02:11:39;1.05;;;0.73;;
21206;SDS011;10761;48.532;8.026;2023-11-19T02:14:05;1.08;;;0.65;;
21206;SDS011;10761;48.532;8.026;2023-11-19T02:16:31;1.27;;;0.80;;
21206;SDS011;10761;48.532;8.026;2023-11-19T02:18:57;1.23;;;0.63;;
21206;SDS011;10761;48.532;8.026;2023-11-19T02:21:23;1.38;;;0.60;;
21206;SDS011;10761;48.532;8.026;2023-11-19T02:23:48;1.33;;;0.75;;
21206;SDS011;10761;48.532;8.026;2023-11-19T02:26:16;2.15;;;1.08;;
21206;SDS011;10761;48.532;8.026;2023-11-19T02:28:47;0.70;;;0.60;;
21206;SDS011;10761;48.532;8.026;2023-11-19T02:31:13;1.45;;;0.80;;
21206;SDS011;10761;48.532;8.026;2023-11-19T02:33:39;0.93;;;0.60;;
21206;SDS011;10761;48.532;8.026;2023-11-19T02:36:05;0.57;;;0.52;;
21206;SDS011;10761;48.532;8.026;2023-11-19T02:38:32;1.00;;;0.80;;
21206;SDS011;10761;48.532;8.026;2023-11-19T02:40:58;0.77;;;0.60;;
21206;SDS011;10761;48.532;8.026;2023-11-19T02:43:27;0.98;;;0.60;;
21206;SDS011;10761;48.532;8.026;2023-11-19T02:45:53;0.63;;;0.60;;
21206;SDS011;10761;48.532;8.026;2023-11-19T02:48:20;1.40;;;0.80;;
21206;SDS011;10761;48.532;8.026;2023-11-19T02:50:46;0.77;;;0.60;;
21206;SDS011;10761;48.532;8.026;2023-11-19T02:53:12;1.67;;;0.63;;
21206;SDS011;10761;48.532;8.026;2023-11-19T02:55:38;1.13;;;0.68;;
21206;SDS011;10761;48.532;8.026;2023-11-19T02:58:06;4.78;;;0.70;;
21206;SDS011;10761;48.532;8.026;2023-11-19T03:00:45;1.65;;;0.60;;
21206;SDS011;10761;48.532;8.026;2023-11-19T03:03:21;1.05;;;0.50;;
21206;SDS011;10761;48.532;8.026;2023-11-19T03:05:53;3.15;;;0.50;;
21206;SDS011;10761;48.532;8.026;2023-11-19T03:08:20;1.35;;;0.60;;
21206;SDS011;10761;48.532;8.026;2023-11-19T03:10:45;0.50;;;0.50;;
21206;SDS011;10761;48.532;8.026;2023-11-19T03:13:11;0.98;;;0.60;;
21206;SDS011;10761;48.532;8.026;2023-11-19T03:15:44;0.95;;;0.50;;
21206;SDS011;10761;48.532;8.026;2023-11-19T03:18:10;1.30;;;0.60;;
21206;SDS011;10761;48.532;8.026;2023-11-19T03:20:36;1.35;;;0.60;;
21206;SDS011;10761;48.532;8.026;2023-11-19T03:23:02;0.85;;;0.43;;
21206;SDS011;10761;48.532;8.026;2023-11-19T03:25:27;0.60;;;0.50;;
21206;SDS011;10761;48.532;8.026;2023-11-19T03:28:01;0.50;;;0.50;;
21206;SDS011;10761;48.532;8.026;2023-11-19T03:30:28;0.70;;;0.43;;
21206;SDS011;10761;48.532;8.026;2023-11-19T03:32:57;2.38;;;0.50;;
21206;SDS011;10761;48.532;8.026;2023-11-19T03:35:23;1.27;;;0.50;;
21206;SDS011;10761;48.532;8.026;2023-11-19T03:37:49;1.50;;;0.30;;
21206;SDS011;10761;48.532;8.026;2023-11-19T03:40:16;1.20;;;0.30;;
21206;SDS011;10761;48.532;8.026;2023-11-19T03:42:41;1.50;;;0.50;;
21206;SDS011;10761;48.532;8.026;2023-11-19T03:45:07;0.40;;;0.40;;
21206;SDS011;10761;48.532;8.026;2023-11-19T03:47:34;0.57;;;0.40;;
21206;SDS011;10761;48.532;8.026;2023-11-19T03:50:00;0.40;;;0.30;;
21206;SDS011;10761;48.532;8.026;2023-11-19T03:52:27;1.98;;;0.40;;
21206;SDS011;10761;48.532;8.026;2023-11-19T03:54:54;0.30;;;0.30;;
21206;SDS011;10761;48.532;8.026;2023-11-19T03:57:20;1.27;;;0.75;;
21206;SDS011;10761;48.532;8.026;2023-11-19T03:59:46;0.40;;;0.40;;
21206;SDS011;10761;48.532;8.026;2023-11-19T04:02:12;0.40;;;0.20;;
21206;SDS011;10761;48.532;8.026;2023-11-19T04:04:37;0.45;;;0.30;;
21206;SDS011;10761;48.532;8.026;2023-11-19T04:07:06;0.98;;;0.30;;
21206;SDS011;10761;48.532;8.026;2023-11-19T04:09:32;1.05;;;0.40;;
21206;SDS011;10761;48.532;8.026;2023-11-19T04:12:02;0.65;;;0.20;;
21206;SDS011;10761;48.532;8.026;2023-11-19T04:14:28;2.30;;;0.50;;
21206;SDS011;10761;48.532;8.026;2023-11-19T04:16:54;1.40;;;0.30;;
21206;SDS011;10761;48.532;8.026;2023-11-19T04:19:20;0.25;;;0.25;;
21206;SDS011;10761;48.532;8.026;2023-11-19T04:21:45;0.52;;;0.47;;
21206;SDS011;10761;48.532;8.026;2023-11-19T04:24:12;0.30;;;0.30;;
21206;SDS011;10761;48.532;8.026;2023-11-19T04:26:41;1.02;;;0.20;;
21206;SDS011;10761;48.532;8.026;2023-11-19T04:29:11;0.20;;;0.20;;
21206;SDS011;10761;48.532;8.026;2023-11-19T04:31:38;0.77;;;0.35;;
21206;SDS011;10761;48.532;8.026;2023-11-19T04:34:04;0.40;;;0.20;;
21206;SDS011;10761;48.532;8.026;2023-11-19T04:36:31;1.70;;;0.20;;
21206;SDS011;10761;48.532;8.026;2023-11-19T04:38:58;0.30;;;0.30;;
21206;SDS011;10761;48.532;8.026;2023-11-19T04:41:24;0.73;;;0.20;;
21206;SDS011;10761;48.532;8.026;2023-11-19T04:43:50;0.40;;;0.30;;
21206;SDS011;10761;48.532;8.026;2023-11-19T04:46:15;1.00;;;0.22;;
21206;SDS011;10761;48.532;8.026;2023-11-19T04:48:41;1.45;;;0.20;;
21206;SDS011;10761;48.532;8.026;2023-11-19T04:51:07;0.43;;;0.20;;
21206;SDS011;10761;48.532;8.026;2023-11-19T04:53:34;0.43;;;0.40;;
21206;SDS011;10761;48.532;8.026;2023-11-19T04:56:00;0.90;;;0.20;;
21206;SDS011;10761;48.532;8.026;2023-11-19T04:58:25;0.20;;;0.20;;
21206;SDS011;10761;48.532;8.026;2023-11-19T05:00:53;0.20;;;0.20;;
21206;SDS011;10761;48.532;8.026;2023-11-19T05:03:19;2.53;;;0.30;;
21206;SDS011;10761;48.532;8.026;2023-11-19T05:05:44;0.30;;;0.20;;
21206;SDS011;10761;48.532;8.026;2023-11-19T05:08:10;0.50;;;0.40;;
21206;SDS011;10761;48.532;8.026;2023-11-19T05:10:36;1.98;;;0.45;;
21206;SDS011;10761;48.532;8.026;2023-11-19T05:13:02;1.33;;;0.30;;
21206;SDS011;10761;48.532;8.026;2023-11-19T05:15:27;0.20;;;0.20;;
21206;SDS011;10761;48.532;8.026;2023-11-19T05:17:53;1.15;;;0.20;;
21206;SDS011;10761;48.532;8.026;2023-11-19T05:20:19;0.10;;;0.10;;
21206;SDS011;10761;48.532;8.026;2023-11-19T05:22:44;0.30;;;0.22;;
21206;SDS011;10761;48.532;8.026;2023-11-19T05:25:10;0.52;;;0.32;;
21206;SDS011;10761;48.532;8.026;2023-11-19T05:27:36;1.45;;;0.35;;
21206;SDS011;10761;48.532;8.026;2023-11-19T05:30:05;0.20;;;0.20;;
21206;SDS011;10761;48.532;8.026;2023-11-19T05:32:35;0.05;;;0.05;;
21206;SDS011;10761;48.532;8.026;2023-11-19T05:35:01;1.65;;;0.20;;
21206;SDS011;10761;48.532;8.026;2023-11-19T05:37:27;0.10;;;0.10;;
21206;SDS011;10761;48.532;8.026;2023-11-19T05:39:52;0.65;;;0.20;;
21206;SDS011;10761;48.532;8.026;2023-11-19T05:42:18;1.65;;;0.20;;
21206;SDS011;10761;48.532;8.026;2023-11-19T05:44:44;0.10;;;0.10;;
21206;SDS011;10761;48.532;8.026;2023-11-19T05:47:09;0.20;;;0.20;;
21206;SDS011;10761;48.532;8.026;2023-11-19T05:49:35;0.40;;;0.10;;
21206;SDS011;10761;48.532;8.026;2023-11-19T05:52:01;0.13;;;0.13;;
21206;SDS011;10761;48.532;8.026;2023-11-19T05:54:28;0.20;;;0.10;;
21206;SDS011;10761;48.532;8.026;2023-11-19T05:56:54;0.28;;;0.20;;
21206;SDS011;10761;48.532;8.026;2023-11-19T05:59:20;1.17;;;0.20;;
21206;SDS011;10761;48.532;8.026;2023-11-19T06:01:47;0.90;;;0.10;;
21206;SDS011;10761;48.532;8.026;2023-11-19T06:04:13;0.20;;;0.15;;
21206;SDS011;10761;48.532;8.026;2023-11-19T06:06:39;0.28;;;0.10;;
21206;SDS011;10761;48.532;8.026;2023-11-19T06:09:05;0.20;;;0.10;;
21206;SDS011;10761;48.532;8.026;2023-11-19T06:11:33;1.65;;;0.35;;
21206;SDS011;10761;48.532;8.026;2023-11-19T06:13:59;0.22;;;0.10;;
21206;SDS011;10761;48.532;8.026;2023-11-19T06:16:25;1.05;;;0.20;;
21206;SDS011;10761;48.532;8.026;2023-11-19T06:18:50;0.10;;;0.10;;
21206;SDS011;10761;48.532;8.026;2023-11-19T06:21:16;0.10;;;0.10;;
21206;SDS011;10761;48.532;8.026;2023-11-19T06:23:41;2.05;;;0.10;;
21206;SDS011;10761;48.532;8.026;2023-11-19T06:26:07;0.10;;;0.10;;
21206;SDS011;10761;48.532;8.026;2023-11-19T06:28:33;2.17;;;0.10;;
21206;SDS011;10761;48.532;8.026;2023-11-19T06:30:59;0.20;;;0.10;;
21206;SDS011;10761;48.532;8.026;2023-11-19T06:33:24;0.15;;;0.10;;
21206;SDS011;10761;48.532;8.026;2023-11-19T06:35:52;0.10;;;0.10;;
21206;SDS011;10761;48.532;8.026;2023-11-19T06:38:17;0.22;;;0.13;;
21206;SDS011;10761;48.532;8.026;2023-11-19T06:40:43;0.20;;;0.20;;
21206;SDS011;10761;48.532;8.026;2023-11-19T06:43:09;0.17;;;0.17;;
21206;SDS011;10761;48.532;8.026;2023-11-19T06:45:35;0.20;;;0.08;;
21206;SDS011;10761;48.532;8.026;2023-11-19T06:48:02;0.10;;;0.10;;
21206;SDS011;10761;48.532;8.026;2023-11-19T06:50:34;0.10;;;0.10;;
21206;SDS011;10761;48.532;8.026;2023-11-19T06:52:59;0.10;;;0.10;;
21206;SDS011;10761;48.532;8.026;2023-11-19T06:55:26;0.32;;;0.10;;
21206;SDS011;10761;48.532;8.026;2023-11-19T06:57:51;0.82;;;0.20;;
21206;SDS011;10761;48.532;8.026;2023-11-19T07:00:17;1.27;;;0.22;;
21206;SDS011;10761;48.532;8.026;2023-11-19T07:02:43;0.22;;;0.08;;
21206;SDS011;10761;48.532;8.026;2023-11-19T07:05:09;0.20;;;0.15;;
21206;SDS011;10761;48.532;8.026;2023-11-19T07:07:35;0.52;;;0.20;;
21206;SDS011;10761;48.532;8.026;2023-11-19T07:10:00;0.63;;;0.15;;
21206;SDS011;10761;48.532;8.026;2023-11-19T07:12:27;0.47;;;0.10;;
21206;SDS011;10761;48.532;8.026;2023-11-19T07:14:53;2.40;;;0.20;;
21206;SDS011;10761;48.532;8.026;2023-11-19T07:17:20;0.30;;;0.20;;
21206;SDS011;10761;48.532;8.026;2023-11-19T07:19:49;0.77;;;0.13;;
21206;SDS011;10761;48.532;8.026;2023-11-19T07:22:15;0.10;;;0.10;;
21206;SDS011;10761;48.532;8.026;2023-11-19T07:24:41;0.65;;;0.20;;
21206;SDS011;10761;48.532;8.026;2023-11-19T07:27:08;0.80;;;0.20;;
21206;SDS011;10761;48.532;8.026;2023-11-19T07:29:36;0.22;;;0.20;;
21206;SDS011;10761;48.532;8.026;2023-11-19T07:32:02;0.60;;;0.20;;
21206;SDS011;10761;48.532;8.026;2023-11-19T07:34:28;1.17;;;0.10;;
21206;SDS011;10761;48.532;8.026;2023-11-19T07:36:54;1.73;;;0.30;;
21206;SDS011;10761;48.532;8.026;2023-11-19T07:39:22;0.10;;;0.10;;
21206;SDS011;10761;48.532;8.026;2023-11-19T07:41:48;1.08;;;0.30;;
21206;SDS011;10761;48.532;8.026;2023-11-19T07:44:14;0.30;;;0.20;;
21206;SDS011;10761;48.532;8.026;2023-11-19T07:46:40;1.83;;;0.10;;
21206;SDS011;10761;48.532;8.026;2023-11-19T07:49:07;1.00;;;0.20;;
21206;SDS011;10761;48.532;8.026;2023-11-19T07:51:32;0.32;;;0.20;;
21206;SDS011;10761;48.532;8.026;2023-11-19T07:53:58;1.17;;;0.20;;
21206;SDS011;10761;48.532;8.026;2023-11-19T07:56:24;0.35;;;0.20;;
21206;SDS011;10761;48.532;8.026;2023-11-19T07:58:49;1.02;;;0.20;;
21206;SDS011;10761;48.532;8.026;2023-11-19T08:01:15;1.00;;;0.25;;
21206;SDS011;10761;48.532;8.026;2023-11-19T08:03:41;0.20;;;0.20;;
21206;SDS011;10761;48.532;8.026;2023-11-19T08:06:07;0.25;;;0.10;;
21206;SDS011;10761;48.532;8.026;2023-11-19T08:08:32;0.63;;;0.20;;
21206;SDS011;10761;48.532;8.026;2023-11-19T08:10:59;0.35;;;0.28;;
21206;SDS011;10761;48.532;8.026;2023-11-19T08:13:25;0.15;;;0.10;;
21206;SDS011;10761;48.532;8.026;2023-11-19T08:15:51;0.32;;;0.20;;
21206;SDS011;10761;48.532;8.026;2023-11-19T08:18:17;2.00;;;0.20;;
21206;SDS011;10761;48.532;8.026;2023-11-19T08:20:43;0.50;;;0.30;;
21206;SDS011;10761;48.532;8.026;2023-11-19T08:23:09;0.35;;;0.17;;
21206;SDS011;10761;48.532;8.026;2023-11-19T08:25:35;0.20;;;0.20;;
21206;SDS011;10761;48.532;8.026;2023-11-19T08:28:01;0.40;;;0.30;;
21206;SDS011;10761;48.532;8.026;2023-11-19T08:30:28;2.35;;;0.38;;
21206;SDS011;10761;48.532;8.026;2023-11-19T08:32:54;1.65;;;0.40;;
21206;SDS011;10761;48.532;8.026;2023-11-19T08:35:20;0.20;;;0.20;;
21206;SDS011;10761;48.532;8.026;2023-11-19T08:37:45;0.80;;;0.20;;
21206;SDS011;10761;48.532;8.026;2023-11-19T08:40:11;0.38;;;0.30;;
21206;SDS011;10761;48.532;8.026;2023-11-19T08:42:40;0.52;;;0.40;;
21206;SDS011;10761;48.532;8.026;2023-11-19T08:45:06;0.50;;;0.28;;
21206;SDS011;10761;48.532;8.026;2023-11-19T08:47:35;0.40;;;0.40;;
21206;SDS011;10761;48.532;8.026;2023-11-19T08:50:01;0.82;;;0.30;;
21206;SDS011;10761;48.532;8.026;2023-11-19T08:52:26;0.40;;;0.20;;
21206;SDS011;10761;48.532;8.026;2023-11-19T08:54:52;0.45;;;0.35;;
21206;SDS011;10761;48.532;8.026;2023-11-19T08:57:18;1.52;;;0.80;;
21206;SDS011;10761;48.532;8.026;2023-11-19T08:59:44;1.60;;;0.55;;
21206;SDS011;10761;48.532;8.026;2023-11-19T09:02:10;0.38;;;0.38;;
21206;SDS011;10761;48.532;8.026;2023-11-19T09:04:36;0.82;;;0.30;;
21206;SDS011;10761;48.532;8.026;2023-11-19T09:07:02;0.38;;;0.22;;
21206;SDS011;10761;48.532;8.026;2023-11-19T09:09:28;2.65;;;0.50;;
21206;SDS011;10761;48.532;8.026;2023-11-19T09:11:54;2.90;;;0.40;;
21206;SDS011;10761;48.532;8.026;2023-11-19T09:14:20;0.28;;;0.28;;
21206;SDS011;10761;48.532;8.026;2023-11-19T09:16:50;2.33;;;0.30;;
21206;SDS011;10761;48.532;8.026;2023-11-19T09:19:16;0.20;;;0.20;;
21206;SDS011;10761;48.532;8.026;2023-11-19T09:21:42;1.38;;;0.40;;
21206;SDS011;10761;48.532;8.026;2023-11-19T09:24:08;0.20;;;0.20;;
21206;SDS011;10761;48.532;8.026;2023-11-19T09:26:33;0.55;;;0.40;;
21206;SDS011;10761;48.532;8.026;2023-11-19T09:29:01;1.27;;;1.10;;
21206;SDS011;10761;48.532;8.026;2023-11-19T09:31:26;0.90;;;0.40;;
21206;SDS011;10761;48.532;8.026;2023-11-19T09:33:52;0.55;;;0.40;;
21206;SDS011;10761;48.532;8.026;2023-11-19T09:36:18;0.52;;;0.40;;
21206;SDS011;10761;48.532;8.026;2023-11-19T09:38:44;1.90;;;0.50;;
21206;SDS011;10761;48.532;8.026;2023-11-19T09:41:10;0.70;;;0.40;;
21206;SDS011;10761;48.532;8.026;2023-11-19T09:43:39;1.95;;;0.35;;
21206;SDS011;10761;48.532;8.026;2023-11-19T09:46:06;0.60;;;0.57;;
21206;SDS011;10761;48.532;8.026;2023-11-19T09:48:38;0.30;;;0.30;;
21206;SDS011;10761;48.532;8.026;2023-11-19T09:51:08;1.00;;;0.40;;
21206;SDS011;10761;48.532;8.026;2023-11-19T09:53:34;0.73;;;0.52;;
21206;SDS011;10761;48.532;8.026;2023-11-19T09:56:01;0.40;;;0.40;;
21206;SDS011;10761;48.532;8.026;2023-11-19T09:58:31;0.70;;;0.60;;
21206;SDS011;10761;48.532;8.026;2023-11-19T10:00:57;1.25;;;0.88;;
21206;SDS011;10761;48.532;8.026;2023-11-19T10:03:24;4.15;;;0.70;;
21206;SDS011;10761;48.532;8.026;2023-11-19T10:05:51;0.40;;;0.40;;
21206;SDS011;10761;48.532;8.026;2023-11-19T10:08:19;1.17;;;0.60;;
21206;SDS011;10761;48.532;8.026;2023-11-19T10:10:45;5.18;;;0.70;;
21206;SDS011;10761;48.532;8.026;2023-11-19T10:13:10;1.73;;;0.57;;
21206;SDS011;10761;48.532;8.026;2023-11-19T10:15:36;0.80;;;0.60;;
21206;SDS011;10761;48.532;8.026;2023-11-19T10:18:02;0.90;;;0.50;;
21206;SDS011;10761;48.532;8.026;2023-11-19T10:20:35;1.00;;;0.52;;
21206;SDS011;10761;48.532;8.026;2023-11-19T10:23:02;1.08;;;0.63;;
21206;SDS011;10761;48.532;8.026;2023-11-19T10:25:28;0.88;;;0.55;;
21206;SDS011;10761;48.532;8.026;2023-11-19T10:27:55;1.15;;;0.60;;
21206;SDS011;10761;48.532;8.026;2023-11-19T10:30:22;1.50;;;0.77;;
21206;SDS011;10761;48.532;8.026;2023-11-19T10:35:27;2.25;;;0.85;;
21206;SDS011;10761;48.532;8.026;2023-11-19T10:37:53;1.08;;;0.70;;
21206;SDS011;10761;48.532;8.026;2023-11-19T10:40:18;3.20;;;0.90;;
21206;SDS011;10761;48.532;8.026;2023-11-19T10:42:44;1.83;;;0.70;;
21206;SDS011;10761;48.532;8.026;2023-11-19T10:45:21;1.40;;;0.90;;
21206;SDS011;10761;48.532;8.026;2023-11-19T10:47:49;0.80;;;0.60;;
21206;SDS011;10761;48.532;8.026;2023-11-19T10:50:16;4.10;;;0.60;;
21206;SDS011;10761;48.532;8.026;2023-11-19T10:52:42;1.05;;;0.80;;
21206;SDS011;10761;48.532;8.026;2023-11-19T10:55:09;4.25;;;0.90;;
21206;SDS011;10761;48.532;8.026;2023-11-19T10:57:39;2.03;;;0.43;;
21206;SDS011;10761;48.532;8.026;2023-11-19T11:00:11;2.60;;;0.63;;
21206;SDS011;10761;48.532;8.026;2023-11-19T11:02:43;0.38;;;0.38;;
21206;SDS011;10761;48.532;8.026;2023-11-19T11:05:13;0.98;;;0.60;;
21206;SDS011;10761;48.532;8.026;2023-11-19T11:07:39;0.57;;;0.30;;
21206;SDS011;10761;48.532;8.026;2023-11-19T11:10:08;2.40;;;0.43;;
21206;SDS011;10761;48.532;8.026;2023-11-19T11:12:36;0.68;;;0.40;;
21206;SDS011;10761;48.532;8.026;2023-11-19T11:15:02;0.47;;;0.30;;
21206;SDS011;10761;48.532;8.026;2023-11-19T11:17:30;1.42;;;0.60;;
21206;SDS011;10761;48.532;8.026;2023-11-19T11:19:58;1.95;;;0.55;;
21206;SDS011;10761;48.532;8.026;2023-11-19T11:22:24;1.92;;;0.82;;
21206;SDS011;10761;48.532;8.026;2023-11-19T11:28:03;2.25;;;0.80;;
21206;SDS011;10761;48.532;8.026;2023-11-19T11:37:03;2.05;;;0.60;;
21206;SDS011;10761;48.532;8.026;2023-11-19T11:39:39;1.23;;;0.60;;
21206;SDS011;10761;48.532;8.026;2023-11-19T11:50:13;1.33;;;0.60;;
21206;SDS011;10761;48.532;8.026;2023-11-19T11:55:24;2.38;;;0.70;;
21206;SDS011;10761;48.532;8.026;2023-11-19T11:57:49;4.10;;;1.90;;
21206;SDS011;10761;48.532;8.026;2023-11-19T12:00:22;2.80;;;0.95;;
21206;SDS011;10761;48.532;8.026;2023-11-19T12:02:56;2.03;;;0.50;;
21206;SDS011;10761;48.532;8.026;2023-11-19T12:05:24;3.80;;;0.95;;
21206;SDS011;10761;48.532;8.026;2023-11-19T12:07:56;2.72;;;0.57;;
21206;SDS011;10761;48.532;8.026;2023-11-19T12:10:46;0.73;;;0.40;;
21206;SDS011;10761;48.532;8.026;2023-11-19T12:13:12;1.90;;;0.55;;
21206;SDS011;10761;48.532;8.026;2023-11-19T12:18:29;1.02;;;0.40;;
21206;SDS011;10761;48.532;8.026;2023-11-19T12:20:58;1.08;;;0.38;;
21206;SDS011;10761;48.532;8.026;2023-11-19T12:23:30;1.17;;;0.60;;
21206;SDS011;10761;48.532;8.026;2023-11-19T12:25:57;2.70;;;0.65;;
21206;SDS011;10761;48.532;8.026;2023-11-19T12:28:23;1.38;;;0.73;;
21206;SDS011;10761;48.532;8.026;2023-11-19T12:30:51;2.67;;;0.70;;
21206;SDS011;10761;48.532;8.026;2023-11-19T12:33:18;1.65;;;0.60;;
21206;SDS011;10761;48.532;8.026;2023-11-19T12:35:45;2.45;;;0.60;;
21206;SDS011;10761;48.532;8.026;2023-11-19T12:43:31;0.68;;;0.52;;
21206;SDS011;10761;48.532;8.026;2023-11-19T12:45:57;3.55;;;0.40;;
21206;SDS011;10761;48.532;8.026;2023-11-19T12:48:22;0.65;;;0.60;;
21206;SDS011;10761;48.532;8.026;2023-11-19T12:50:54;3.42;;;0.80;;
21206;SDS011;10761;48.532;8.026;2023-11-19T12:53:25;0.75;;;0.57;;
21206;SDS011;10761;48.532;8.026;2023-11-19T12:56:12;2.38;;;0.60;;
21206;SDS011;10761;48.532;8.026;2023-11-19T12:58:38;3.08;;;0.70;;
21206;SDS011;10761;48.532;8.026;2023-11-19T13:01:05;3.50;;;0.70;;
21206;SDS011;10761;48.532;8.026;2023-11-19T13:03:32;3.03;;;0.50;;
21206;SDS011;10761;48.532;8.026;2023-11-19T13:06:05;1.38;;;0.73;;
21206;SDS011;10761;48.532;8.026;2023-11-19T13:08:39;1.17;;;0.50;;
21206;SDS011;10761;48.532;8.026;2023-11-19T13:11:10;2.20;;;1.50;;
21206;SDS011;10761;48.532;8.026;2023-11-19T13:16:24;1.40;;;0.50;;
21206;SDS011;10761;48.532;8.026;2023-11-19T13:18:50;1.02;;;0.50;;
21206;SDS011;10761;48.532;8.026;2023-11-19T13:21:16;1.50;;;0.60;;
21206;SDS011;10761;48.532;8.026;2023-11-19T13:23:42;0.73;;;0.40;;
21206;SDS011;10761;48.532;8.026;2023-11-19T13:26:08;1.13;;;0.70;;
21206;SDS011;10761;48.532;8.026;2023-11-19T13:28:34;1.95;;;0.60;;
21206;SDS011;10761;48.532;8.026;2023-11-19T13:31:00;1.00;;;0.70;;
21206;SDS011;10761;48.532;8.026;2023-11-19T13:33:25;2.88;;;0.85;;
21206;SDS011;10761;48.532;8.026;2023-11-19T13:35:51;1.02;;;0.70;;
21206;SDS011;10761;48.532;8.026;2023-11-19T13:38:17;1.48;;;0.63;;
21206;SDS011;10761;48.532;8.026;2023-11-19T13:40:42;2.05;;;0.82;;
21206;SDS011;10761;48.532;8.026;2023-11-19T13:43:08;1.60;;;1.00;;
21206;SDS011;10761;48.532;8.026;2023-11-19T13:45:34;2.70;;;0.85;;
21206;SDS011;10761;48.532;8.026;2023-11-19T13:47:59;1.33;;;0.60;;
21206;SDS011;10761;48.532;8.026;2023-11-19T13:50:25;1.35;;;1.00;;
21206;SDS011;10761;48.532;8.026;2023-11-19T13:52:50;1.98;;;0.82;;
21206;SDS011;10761;48.532;8.026;2023-11-19T13:55:16;1.45;;;0.98;;
21206;SDS011;10761;48.532;8.026;2023-11-19T13:57:43;0.85;;;0.68;;
21206;SDS011;10761;48.532;8.026;2023-11-19T14:00:09;2.58;;;0.70;;
21206;SDS011;10761;48.532;8.026;2023-11-19T14:02:41;3.15;;;0.95;;
21206;SDS011;10761;48.532;8.026;2023-11-19T14:05:08;2.70;;;1.05;;
21206;SDS011;10761;48.532;8.026;2023-11-19T14:07:35;2.55;;;1.15;;
21206;SDS011;10761;48.532;8.026;2023-11-19T14:10:01;2.45;;;1.40;;
21206;SDS011;10761;48.532;8.026;2023-11-19T14:12:27;5.60;;;2.30;;
21206;SDS011;10761;48.532;8.026;2023-11-19T14:14:53;4.35;;;2.10;;
21206;SDS011;10761;48.532;8.026;2023-11-19T14:17:20;3.55;;;1.40;;
21206;SDS011;10761;48.532;8.026;2023-11-19T14:19:46;3.47;;;1.40;;
21206;SDS011;10761;48.532;8.026;2023-11-19T14:22:11;2.30;;;1.70;;
21206;SDS011;10761;48.532;8.026;2023-11-19T14:24:37;2.30;;;1.33;;
21206;SDS011;10761;48.532;8.026;2023-11-19T14:27:04;1.77;;;1.10;;
21206;SDS011;10761;48.532;8.026;2023-11-19T14:29:30;3.50;;;0.85;;
21206;SDS011;10761;48.532;8.026;2023-11-19T14:31:56;2.38;;;0.70;;
21206;SDS011;10761;48.532;8.026;2023-11-19T14:34:23;2.88;;;0.60;;
21206;SDS011;10761;48.532;8.026;2023-11-19T14:36:49;1.65;;;1.00;;
21206;SDS011;10761;48.532;8.026;2023-11-19T14:39:15;3.15;;;0.70;;
21206;SDS011;10761;48.532;8.026;2023-11-19T14:41:42;3.40;;;0.80;;
21206;SDS011;10761;48.532;8.026;2023-11-19T14:44:08;1.75;;;1.00;;
21206;SDS011;10761;48.532;8.026;2023-11-19T14:46:34;3.05;;;1.48;;
21206;SDS011;10761;48.532;8.026;2023-11-19T14:49:00;2.85;;;0.90;;
21206;SDS011;10761;48.532;8.026;2023-11-19T14:51:26;1.77;;;0.80;;
21206;SDS011;10761;48.532;8.026;2023-11-19T14:53:52;1.45;;;0.77;;
21206;SDS011;10761;48.532;8.026;2023-11-19T14:56:17;0.88;;;0.70;;
21206;SDS011;10761;48.532;8.026;2023-11-19T14:58:43;2.17;;;0.85;;
21206;SDS011;10761;48.532;8.026;2023-11-19T15:01:13;3.42;;;1.00;;
21206;SDS011;10761;48.532;8.026;2023-11-19T15:03:38;0.93;;;0.70;;
21206;SDS011;10761;48.532;8.026;2023-11-19T15:06:05;3.30;;;0.80;;
21206;SDS011;10761;48.532;8.026;2023-11-19T15:08:31;1.00;;;0.57;;
21206;SDS011;10761;48.532;8.026;2023-11-19T15:10:57;1.67;;;0.60;;
21206;SDS011;10761;48.532;8.026;2023-11-19T15:13:23;3.78;;;0.70;;
21206;SDS011;10761;48.532;8.026;2023-11-19T15:15:49;1.02;;;0.50;;
21206;SDS011;10761;48.532;8.026;2023-11-19T15:18:17;2.42;;;0.70;;
21206;SDS011;10761;48.532;8.026;2023-11-19T15:20:44;3.97;;;1.30;;